Time;durP1;ratioP1;P1;durP2;ratioP2;P2;SDS_P1;SDS_P2;PMS_P1;PMS_P2;Temp;Humidity;BMP_temperature;BMP_pressure;BME280_temperature;BME280_humidity;BME280_pressure;Samples;Min_cycle;Max_cycle;Signal;HPM_P1;HPM_P2
2022/12/12 00:00:15;;;;;;;26.60;15.73;;;;;;;4.35;61.03;99695.16;5091919;28;20052;-60
2022/12/12 00:02:42;;;;;;;22.77;13.80;;;;;;;4.40;61.02;99703.38;5090765;28;20052;-60
2022/12/12 00:05:14;;;;;;;24.92;15.23;;;;;;;4.50;60.33;99699.69;5094728;28;20044;-60
2022/12/12 00:07:41;;;;;;;25.77;15.00;;;;;;;4.56;59.75;99693.00;5094392;28;20408;-60
2022/12/12 00:10:09;;;;;;;25.42;15.00;;;;;;;4.61;59.37;99701.22;5094252;28;20052;-60
2022/12/12 00:12:36;;;;;;;21.38;13.70;;;;;;;4.53;60.07;99694.38;5094794;28;20051;-60
2022/12/12 00:15:07;;;;;;;23.35;14.93;;;;;;;4.50;61.09;99700.50;5094822;28;20051;-60
2022/12/12 00:17:35;;;;;;;24.23;15.50;;;;;;;4.55;61.16;99705.13;5095197;28;20055;-60
2022/12/12 00:20:04;;;;;;;23.83;14.80;;;;;;;4.58;60.89;99702.63;5095174;28;20063;-60
2022/12/12 00:22:31;;;;;;;24.67;14.75;;;;;;;4.53;60.54;99701.84;5094363;28;20051;-62
2022/12/12 00:24:58;;;;;;;27.23;15.73;;;;;;;4.49;61.00;99712.63;5093916;28;20060;-61
2022/12/12 00:27:26;;;;;;;22.42;14.57;;;;;;;4.53;60.01;99710.94;5095135;28;20059;-62
2022/12/12 00:29:53;;;;;;;24.23;14.70;;;;;;;4.44;61.22;99710.75;5094862;28;20409;-59
2022/12/12 00:32:21;;;;;;;25.05;14.35;;;;;;;4.52;60.66;99714.00;5094871;28;20048;-62
2022/12/12 00:34:49;;;;;;;22.08;14.43;;;;;;;4.52;61.45;99712.06;5094709;28;20476;-59
2022/12/12 00:37:17;;;;;;;22.40;14.68;;;;;;;4.58;61.50;99712.84;5095106;28;20056;-59
2022/12/12 00:39:44;;;;;;;24.15;14.93;;;;;;;4.60;60.79;99724.38;5101522;28;20056;-62
2022/12/12 00:42:12;;;;;;;24.25;14.55;;;;;;;4.55;60.66;99708.72;5115182;28;20051;-62
2022/12/12 00:44:39;;;;;;;26.30;15.95;;;;;;;4.61;60.85;99720.50;5114622;28;20066;-62
2022/12/12 00:47:06;;;;;;;24.50;15.35;;;;;;;4.57;62.03;99713.94;5114682;28;20058;-62
2022/12/12 00:49:34;;;;;;;27.30;15.85;;;;;;;4.59;61.14;99714.47;5094293;28;20070;-61
2022/12/12 00:52:03;;;;;;;24.42;14.55;;;;;;;4.59;60.97;99714.47;5094877;28;20059;-61
2022/12/12 00:54:30;;;;;;;25.73;15.40;;;;;;;4.62;61.88;99722.16;5104640;28;20492;-61
2022/12/12 00:56:57;;;;;;;23.13;14.00;;;;;;;4.60;61.79;99721.63;5114933;28;20063;-61
2022/12/12 00:59:25;;;;;;;27.00;16.02;;;;;;;4.60;61.50;99727.13;5090169;28;20048;-62
2022/12/12 01:01:52;;;;;;;21.98;14.60;;;;;;;4.62;60.93;99727.66;5074072;28;20063;-61
2022/12/12 01:04:19;;;;;;;25.42;15.55;;;;;;;4.60;61.00;99721.63;5073974;28;20055;-62
2022/12/12 01:06:46;;;;;;;25.05;15.10;;;;;;;4.61;60.78;99717.75;5074018;28;20393;-61
2022/12/12 01:09:15;;;;;;;24.30;14.85;;;;;;;4.61;61.00;99715.00;5106956;28;20419;-61
2022/12/12 01:11:42;;;;;;;26.65;15.43;;;;;;;4.64;60.21;99723.50;5114125;28;20056;-61
2022/12/12 01:14:10;;;;;;;23.92;15.40;;;;;;;4.57;61.17;99725.78;5114181;28;20058;-61
2022/12/12 01:16:37;;;;;;;23.80;15.13;;;;;;;4.64;61.76;99728.19;5113925;28;20473;-62
2022/12/12 01:19:04;;;;;;;22.88;14.93;;;;;;;4.69;61.41;99725.38;5114376;28;20484;-61
2022/12/12 01:21:31;;;;;;;25.60;15.90;;;;;;;4.66;61.17;99732.31;5114214;28;20491;-60
2022/12/12 01:24:00;;;;;;;26.38;15.45;;;;;;;4.63;60.32;99732.06;5109147;28;20388;-61
2022/12/12 01:26:28;;;;;;;26.00;15.88;;;;;;;4.63;59.95;99732.06;5114427;28;20365;-61
2022/12/12 01:28:56;;;;;;;26.50;16.05;;;;;;;4.58;60.34;99730.19;5113817;28;20062;-61
2022/12/12 01:31:23;;;;;;;29.00;16.75;;;;;;;4.61;60.68;99732.34;5114263;28;20503;-61
2022/12/12 01:33:51;;;;;;;25.55;16.42;;;;;;;4.54;59.73;99739.34;5113497;28;20499;-61
2022/12/12 01:36:20;;;;;;;27.58;16.20;;;;;;;4.58;60.34;99744.00;5111889;28;20377;-61
2022/12/12 01:38:49;;;;;;;28.05;16.80;;;;;;;4.55;60.91;99741.00;5113298;28;20048;-61
2022/12/12 01:41:17;;;;;;;25.55;15.07;;;;;;;4.52;61.47;99742.41;5114127;28;20468;-61
2022/12/12 01:43:49;;;;;;;23.15;14.77;;;;;;;4.59;60.99;99742.88;5112437;28;20511;-61
2022/12/12 01:46:38;;;;;;;27.58;16.10;;;;;;;4.47;61.34;99746.03;5113833;28;20043;-61
2022/12/12 01:49:19;;;;;;;28.40;16.02;;;;;;;4.52;60.39;99738.84;5096625;28;20063;-61
2022/12/12 01:51:49;;;;;;;31.88;17.00;;;;;;;4.48;61.75;99742.16;5100059;28;20404;-61
2022/12/12 01:54:21;;;;;;;25.08;16.40;;;;;;;4.57;61.46;99744.28;5113599;28;20403;-61
2022/12/12 01:56:51;;;;;;;27.10;15.82;;;;;;;4.55;61.85;99741.00;5113391;28;20044;-61
2022/12/12 01:59:25;;;;;;;23.45;15.18;;;;;;;4.61;60.34;99748.09;5113459;28;20052;-62
2022/12/12 02:01:54;;;;;;;28.58;17.33;;;;;;;4.60;60.44;99738.16;5113446;28;20048;-61
2022/12/12 02:04:22;;;;;;;24.83;15.20;;;;;;;4.56;60.03;99742.66;5113326;28;20048;-61
2022/12/12 02:06:52;;;;;;;24.48;16.10;;;;;;;4.54;60.67;99756.72;5111730;28;20047;-61
2022/12/12 02:09:21;;;;;;;27.33;16.20;;;;;;;4.55;59.39;99747.31;5110457;28;20063;-61
2022/12/12 02:11:51;;;;;;;28.43;16.23;;;;;;;4.46;60.67;99749.91;5112267;28;20052;-62
2022/12/12 02:14:27;;;;;;;26.80;17.02;;;;;;;4.39;60.70;99752.19;5112898;28;20074;-62
2022/12/12 02:17:12;;;;;;;27.90;17.15;;;;;;;4.43;59.87;99750.50;5112933;28;20688;-61
2022/12/12 02:20:27;;;;;;;30.42;18.13;;;;;;;4.12;60.24;99755.47;5113235;28;20480;-61
2022/12/12 02:23:24;;;;;;;27.73;16.55;;;;;;;4.27;60.54;99751.75;5098353;28;20056;-60
2022/12/12 02:26:09;;;;;;;30.00;18.05;;;;;;;4.32;61.54;99750.88;5072061;28;20071;-62
2022/12/12 02:29:19;;;;;;;28.45;17.45;;;;;;;4.36;60.07;99750.00;5072111;28;20490;-62
2022/12/12 02:31:52;;;;;;;32.17;18.85;;;;;;;4.32;59.47;99759.97;5039078;28;20056;-62
2022/12/12 02:34:28;;;;;;;28.27;18.27;;;;;;;4.29;60.54;99757.81;5072638;28;20420;-61
2022/12/12 02:37:06;;;;;;;29.50;18.05;;;;;;;4.35;61.31;99759.41;5090934;28;20052;-61
2022/12/12 02:39:39;;;;;;;28.63;18.38;;;;;;;4.40;61.33;99751.06;5090472;28;20500;-61
2022/12/12 02:42:11;;;;;;;28.13;16.90;;;;;;;4.45;60.13;99756.53;5092903;28;20059;-61
2022/12/12 02:44:43;;;;;;;25.55;16.15;;;;;;;4.46;60.74;99754.59;5091956;28;20443;-61
2022/12/12 02:47:18;;;;;;;28.45;16.55;;;;;;;4.43;60.98;99750.50;5092707;28;20419;-60
2022/12/12 02:49:49;;;;;;;27.05;16.15;;;;;;;4.42;59.97;99753.53;5092533;28;20059;-61
2022/12/12 02:52:20;;;;;;;26.55;16.65;;;;;;;4.44;60.17;99749.38;5092419;28;20062;-61
2022/12/12 02:54:48;;;;;;;28.45;16.85;;;;;;;4.45;60.63;99753.78;5091886;28;20523;-61
2022/12/12 02:57:17;;;;;;;26.80;17.20;;;;;;;4.47;60.40;99756.22;5092542;28;20048;-61
2022/12/12 02:59:50;;;;;;;26.15;15.98;;;;;;;4.47;61.10;99756.22;5092068;28;20489;-62
2022/12/12 03:02:39;;;;;;;25.50;15.43;;;;;;;4.47;61.60;99759.84;5092679;28;20091;-60
2022/12/12 03:08:19;;;;;;;25.98;16.42;;;;;;;4.58;61.51;99762.47;5098559;28;20102;-60
2022/12/12 03:10:54;;;;;;;26.02;15.93;;;;;;;4.51;61.16;99764.75;5092032;28;20052;-61
2022/12/12 03:13:31;;;;;;;26.52;15.20;;;;;;;4.46;61.55;99758.16;5092324;28;20052;-61
2022/12/12 03:16:09;;;;;;;24.67;15.88;;;;;;;4.50;60.58;99763.94;5090518;28;20489;-63
2022/12/12 03:18:45;;;;;;;24.60;16.08;;;;;;;4.57;60.46;99763.59;5092488;28;20400;-63
2022/12/12 03:21:19;;;;;;;24.20;15.27;;;;;;;4.53;60.24;99755.06;5092304;28;20071;-63
2022/12/12 03:23:53;;;;;;;23.33;14.77;;;;;;;4.47;60.01;99758.97;5091699;28;20052;-63
2022/12/12 03:26:27;;;;;;;23.58;14.15;;;;;;;4.44;60.98;99757.63;5092209;28;20056;-63
2022/12/12 03:29:02;;;;;;;24.60;14.40;;;;;;;4.38;61.39;99764.31;5092202;28;20060;-63
2022/12/12 03:31:32;;;;;;;27.98;16.02;;;;;;;4.38;60.74;99761.56;5091355;28;20056;-63
2022/12/12 03:34:02;;;;;;;;;;;;;;;4.35;61.33;99759.41;5092408;28;20142;-63
2022/12/12 03:36:37;;;;;;;26.52;15.35;;;;;;;4.35;60.89;99759.41;5092216;28;19924;-63
2022/12/12 03:39:13;;;;;;;22.10;14.63;;;;;;;4.33;61.84;99767.13;5095644;28;20051;-63
2022/12/12 03:41:45;;;;;;;23.05;14.30;;;;;;;4.41;61.79;99758.22;5115970;28;20399;-62
2022/12/12 03:44:16;;;;;;;28.13;15.35;;;;;;;4.43;61.57;99756.00;5113916;28;20059;-63
2022/12/12 03:46:49;;;;;;;24.83;15.38;;;;;;;4.46;61.18;99751.84;5113894;28;20051;-63
2022/12/12 03:49:21;;;;;;;26.52;15.45;;;;;;;4.44;60.84;99757.63;5098015;28;20426;-63
2022/12/12 03:51:55;;;;;;;27.65;16.40;;;;;;;4.44;61.24;99752.13;5111052;28;20062;-63
2022/12/12 03:54:26;;;;;;;22.67;15.02;;;;;;;4.47;61.79;99754.31;5116239;28;20472;-63
2022/12/12 03:56:57;;;;;;;25.23;16.50;;;;;;;4.40;61.93;99755.75;5109141;28;20048;-63
2022/12/12 03:59:29;;;;;;;28.15;16.15;;;;;;;4.39;61.32;99762.38;5105694;28;20408;-63
2022/12/12 04:02:03;;;;;;;27.10;16.75;;;;;;;4.36;61.70;99754.69;5115591;28;20048;-63
2022/12/12 04:04:38;;;;;;;26.70;15.68;;;;;;;4.39;61.45;99763.22;5115896;28;20511;-63
2022/12/12 04:07:11;;;;;;;28.45;16.45;;;;;;;4.43;62.21;99761.53;5115732;28;20051;-63
2022/12/12 04:15:27;;;;;;;27.17;17.10;;;;;;;4.54;61.79;99761.44;5112623;28;20063;-63
2022/12/12 04:18:08;;;;;;;24.55;15.02;;;;;;;4.48;61.06;99764.22;5114918;28;20051;-63
2022/12/12 04:23:34;;;;;;;27.60;16.55;;;;;;;4.52;60.48;99769.16;5120629;28;20058;-63
2022/12/12 04:29:01;;;;;;;26.38;15.20;;;;;;;4.41;61.79;99777.53;5119558;28;20059;-63
2022/12/12 04:31:34;;;;;;;25.90;15.82;;;;;;;4.41;62.05;99774.78;5114752;28;20047;-63
2022/12/12 04:34:05;;;;;;;26.10;16.50;;;;;;;4.45;61.88;99781.34;5114828;28;20063;-63
2022/12/12 04:36:35;;;;;;;26.67;16.30;;;;;;;4.41;61.15;99782.19;5115106;28;20055;-63
2022/12/12 04:39:05;;;;;;;24.30;16.20;;;;;;;4.38;61.35;99782.81;5114487;28;20056;-62
2022/12/12 04:41:35;;;;;;;28.95;16.90;;;;;;;4.34;61.71;99790.81;5115357;28;20511;-63
2022/12/12 04:44:06;;;;;;;25.35;16.50;;;;;;;4.25;61.90;99787.88;5111971;28;20048;-63
2022/12/12 04:46:36;;;;;;;27.17;17.50;;;;;;;4.25;61.41;99787.06;5115007;28;20051;-63
2022/12/12 04:49:07;;;;;;;26.38;16.02;;;;;;;4.26;60.87;99783.16;5097095;28;20048;-63
2022/12/12 04:51:41;;;;;;;25.48;15.70;;;;;;;4.29;61.81;99781.78;5093986;28;20059;-63
2022/12/12 04:54:13;;;;;;;24.27;15.07;;;;;;;4.12;62.25;99788.53;5093993;28;20066;-63
2022/12/12 04:56:44;;;;;;;25.15;14.85;;;;;;;4.14;62.42;99788.25;5100882;28;20060;-61
2022/12/12 04:59:11;;;;;;;29.42;17.00;;;;;;;4.11;61.58;99797.09;5114730;28;20400;-63
2022/12/12 05:01:48;;;;;;;27.90;16.48;;;;;;;3.94;61.81;99792.81;5113193;28;20048;-63
2022/12/12 05:04:24;;;;;;;26.17;15.95;;;;;;;4.02;62.94;99800.47;5094788;28;20051;-63
2022/12/12 05:06:57;;;;;;;24.73;15.02;;;;;;;4.10;62.35;99795.47;5094314;28;20055;-63
2022/12/12 05:09:25;;;;;;;26.75;16.33;;;;;;;4.31;63.56;99794.16;5094067;28;20055;-65
2022/12/12 05:11:53;;;;;;;24.17;15.15;;;;;;;4.28;62.78;99797.50;5102451;28;20055;-63
2022/12/12 05:14:20;;;;;;;26.13;17.23;;;;;;;4.33;62.27;99800.22;5114336;28;20052;-63
2022/12/12 05:16:52;;;;;;;27.92;16.90;;;;;;;4.31;60.65;99799.69;5114236;28;20056;-63
2022/12/12 05:19:19;;;;;;;26.13;15.07;;;;;;;4.25;60.60;99800.84;5114017;28;20047;-64
2022/12/12 05:21:46;;;;;;;26.00;15.95;;;;;;;4.24;61.30;99796.41;5113757;28;20048;-63
2022/12/12 05:24:15;;;;;;;24.15;15.32;;;;;;;4.24;62.27;99799.19;5113845;28;20055;-63
2022/12/12 05:26:42;;;;;;;25.52;16.00;;;;;;;4.24;62.12;99799.19;5112941;28;20055;-63
2022/12/12 05:29:10;;;;;;;28.58;19.33;;;;;;;4.30;61.94;99798.03;5114117;28;20505;-63
2022/12/12 05:31:37;;;;;;;24.73;15.55;;;;;;;4.35;62.23;99786.97;5114083;28;20051;-63
2022/12/12 05:34:05;;;;;;;24.58;16.17;;;;;;;4.44;61.11;99796.25;5109313;28;20060;-62
2022/12/12 05:36:32;;;;;;;25.00;16.10;;;;;;;4.32;61.53;99798.56;5107972;28;20411;-63
2022/12/12 05:39:02;;;;;;;27.10;16.05;;;;;;;4.28;61.54;99794.72;5113722;28;20048;-63
2022/12/12 05:41:30;;;;;;;23.67;15.13;;;;;;;4.35;61.85;99795.25;5114145;28;20476;-63
2022/12/12 05:43:58;;;;;;;25.33;16.10;;;;;;;4.41;60.54;99801.50;5113735;28;20416;-63
2022/12/12 05:46:25;;;;;;;27.60;17.23;;;;;;;4.34;60.77;99801.84;5113890;28;20051;-63
2022/12/12 05:48:52;;;;;;;24.52;14.75;;;;;;;4.25;61.59;99803.59;5106413;28;20048;-62
2022/12/12 05:51:22;;;;;;;24.33;16.10;;;;;;;4.19;61.61;99810.25;5113955;28;20056;-63
2022/12/12 05:53:49;;;;;;;;;;;;;;;4.05;62.41;99810.94;5114147;28;20051;-63
2022/12/12 05:56:16;;;;;;;25.52;15.68;;;;;;;4.03;61.52;99810.38;5113581;28;19920;-63
2022/12/12 05:58:45;;;;;;;23.30;16.17;;;;;;;4.13;62.34;99812.22;5113093;28;20051;-62
2022/12/12 06:01:12;;;;;;;25.20;16.25;;;;;;;4.20;60.71;99806.38;5112938;28;20044;-63
2022/12/12 06:03:39;;;;;;;27.20;16.88;;;;;;;3.74;61.93;99814.97;5111316;28;20058;-63
2022/12/12 06:06:07;;;;;;;22.48;15.93;;;;;;;3.82;63.05;99820.72;5113342;28;20395;-62
2022/12/12 06:08:34;;;;;;;30.02;17.98;;;;;;;3.56;63.16;99811.78;5094761;28;20048;-62
2022/12/12 06:11:05;;;;;;;25.95;17.02;;;;;;;3.60;62.46;99812.88;5083693;28;20044;-62
2022/12/12 06:13:32;;;;;;;25.98;15.60;;;;;;;3.68;63.72;99813.41;5090301;28;20484;-61
2022/12/12 06:16:06;;;;;;;26.98;16.55;;;;;;;3.74;63.90;99818.56;5110901;28;20133;-62
2022/12/12 06:18:33;;;;;;;24.73;15.80;;;;;;;3.72;63.01;99825.50;5112667;28;20096;-62
2022/12/12 06:21:05;;;;;;;23.45;14.93;;;;;;;3.84;62.64;99820.44;5105320;28;20044;-63
2022/12/12 06:23:36;;;;;;;25.17;16.65;;;;;;;3.82;63.05;99815.22;5092315;28;20496;-63
2022/12/12 06:26:03;;;;;;;22.98;14.70;;;;;;;3.76;63.44;99826.53;5094053;28;20052;-62
2022/12/12 06:28:31;;;;;;;23.45;15.30;;;;;;;3.79;62.29;99828.72;5100575;28;20054;-63
2022/12/12 06:30:58;;;;;;;25.45;16.83;;;;;;;3.78;63.55;99827.91;5093764;28;20052;-63
2022/12/12 06:33:27;;;;;;;25.92;15.38;;;;;;;3.85;62.34;99827.59;5092517;28;20048;-63
2022/12/12 06:35:58;;;;;;;26.23;15.18;;;;;;;3.83;63.19;99830.63;5092109;28;20051;-63
2022/12/12 06:38:26;;;;;;;24.15;15.45;;;;;;;3.84;62.77;99831.44;5084133;28;20433;-62
2022/12/12 06:40:53;;;;;;;23.95;15.98;;;;;;;3.88;63.23;99838.03;5085086;28;20063;-62
2022/12/12 06:43:21;;;;;;;25.27;16.63;;;;;;;3.82;61.84;99833.66;5091585;28;20052;-63
2022/12/12 06:45:48;;;;;;;25.60;15.80;;;;;;;3.81;62.57;99834.78;5092568;28;20053;-63
2022/12/12 06:48:16;;;;;;;20.00;14.48;;;;;;;3.90;62.39;99830.31;5090946;28;20047;-63
2022/12/12 06:50:45;;;;;;;25.33;15.63;;;;;;;3.95;62.00;99838.56;5089125;28;20036;-63
2022/12/12 06:53:13;;;;;;;24.17;15.20;;;;;;;3.86;61.48;99840.25;5088103;28;20051;-61
2022/12/12 06:55:43;;;;;;;27.42;16.95;;;;;;;3.69;62.28;99842.56;5082032;28;20055;-62
2022/12/12 06:58:11;;;;;;;26.98;16.52;;;;;;;3.57;62.99;99835.47;5089134;28;20055;-63
2022/12/12 07:00:38;;;;;;;24.23;15.43;;;;;;;3.58;63.08;99836.28;5091022;28;20056;-63
2022/12/12 07:03:05;;;;;;;22.75;15.15;;;;;;;3.58;62.11;99842.63;5090042;28;20071;-62
2022/12/12 07:05:33;;;;;;;23.00;14.90;;;;;;;3.54;62.80;99838.78;5090050;28;20155;-63
2022/12/12 07:08:02;;;;;;;24.65;15.55;;;;;;;3.48;62.64;99841.84;5088646;28;20051;-63
2022/12/12 07:10:30;;;;;;;26.33;17.08;;;;;;;3.34;62.32;99836.13;5088101;28;20048;-62
2022/12/12 07:12:57;;;;;;;25.95;16.92;;;;;;;3.29;63.78;99841.66;5093436;28;20385;-62
2022/12/12 07:15:24;;;;;;;24.13;15.45;;;;;;;3.29;62.70;99833.41;5089959;28;20059;-63
2022/12/12 07:17:53;;;;;;;23.08;15.30;;;;;;;3.33;63.58;99838.06;5096173;28;20473;-63
2022/12/12 07:20:20;;;;;;;23.77;15.70;;;;;;;3.11;63.32;99835.69;5096209;28;20052;-62
2022/12/12 07:22:48;;;;;;;26.65;16.15;;;;;;;2.99;64.00;99846.97;5095085;28;20052;-63
2022/12/12 07:25:16;;;;;;;24.38;15.13;;;;;;;2.99;63.48;99844.22;5084784;28;20048;-63
2022/12/12 07:27:44;;;;;;;22.35;14.32;;;;;;;3.02;62.58;99845.59;5090400;28;21453;-62
2022/12/12 07:30:12;;;;;;;28.30;16.08;;;;;;;2.88;63.55;99850.03;5094054;28;20044;-63
2022/12/12 07:32:39;;;;;;;26.13;16.77;;;;;;;2.77;64.12;99850.06;5094644;28;20068;-62
2022/12/12 07:35:07;;;;;;;28.27;16.85;;;;;;;2.67;63.64;99860.25;5093428;28;20060;-62
2022/12/12 07:37:35;;;;;;;24.23;15.40;;;;;;;2.72;64.06;99858.31;5096361;28;20052;-62
2022/12/12 07:40:02;;;;;;;26.98;15.70;;;;;;;2.80;64.72;99846.75;5103675;28;20051;-62
2022/12/12 07:42:31;;;;;;;30.88;17.65;;;;;;;2.80;63.32;99852.25;5116605;28;20059;-63
2022/12/12 07:44:58;;;;;;;27.15;16.25;;;;;;;2.62;64.02;99861.09;5115071;28;20058;-63
2022/12/12 07:47:25;;;;;;;27.15;17.08;;;;;;;2.62;64.07;99869.31;5112830;28;20058;-63
2022/12/12 07:49:53;;;;;;;30.02;17.73;;;;;;;2.59;65.17;99875.41;5095590;28;20408;-66
2022/12/12 07:52:20;;;;;;;28.05;17.88;;;;;;;2.67;64.65;99874.84;5108286;28;20052;-66
2022/12/12 07:54:48;;;;;;;24.88;16.27;;;;;;;2.91;64.36;99868.75;5112671;28;20117;-66
2022/12/12 07:57:15;;;;;;;23.95;15.43;;;;;;;3.00;63.18;99875.31;5114038;28;20664;-66
2022/12/12 07:59:44;;;;;;;26.13;16.27;;;;;;;3.09;63.66;99876.41;5078345;28;20071;-66
2022/12/12 08:02:11;;;;;;;29.63;17.38;;;;;;;3.07;62.15;99881.38;5084138;28;20056;-66
2022/12/12 08:04:38;;;;;;;25.60;15.65;;;;;;;3.10;63.61;99878.03;5083660;28;20052;-65
2022/12/12 08:07:06;;;;;;;26.08;16.60;;;;;;;3.07;63.61;99877.75;5087103;28;20475;-66
2022/12/12 08:09:33;;;;;;;26.05;15.85;;;;;;;3.11;62.36;99885.22;5083011;28;20045;-66
2022/12/12 08:12:00;;;;;;;27.65;16.90;;;;;;;3.22;62.73;99886.81;5075962;28;20056;-65
2022/12/12 08:14:28;;;;;;;26.80;16.10;;;;;;;3.25;62.18;99886.28;5081391;28;20432;-65
2022/12/12 08:16:56;;;;;;;28.30;16.67;;;;;;;3.30;61.57;99888.19;5070347;28;20063;-65
2022/12/12 08:19:24;;;;;;;24.48;16.20;;;;;;;3.29;63.23;99893.94;5085725;28;20059;-66
2022/12/12 08:21:51;;;;;;;24.33;15.43;;;;;;;3.37;61.67;99890.63;5081624;28;20057;-67
2022/12/12 08:24:18;;;;;;;27.42;15.73;;;;;;;3.53;61.45;99891.38;5084869;28;20060;-67
2022/12/12 08:26:45;;;;;;;23.55;15.30;;;;;;;3.74;62.09;99895.69;5075254;28;20059;-67
2022/12/12 08:29:13;;;;;;;25.10;16.08;;;;;;;3.98;60.92;99893.06;5077024;28;20048;-66
2022/12/12 08:31:40;;;;;;;24.73;15.55;;;;;;;4.37;60.04;99902.47;5078986;28;20055;-66
2022/12/12 08:34:09;;;;;;;23.25;15.30;;;;;;;4.60;59.36;99892.63;5090353;28;20396;-66
2022/12/12 08:36:37;;;;;;;23.45;15.07;;;;;;;5.37;57.93;99889.91;5088266;28;20068;-66
2022/12/12 08:39:07;;;;;;;22.27;14.25;;;;;;;6.01;56.24;99895.22;5085944;28;20420;-64
2022/12/12 08:41:37;;;;;;;24.77;15.52;;;;;;;6.86;54.55;99888.59;5086177;28;20064;-66
2022/12/12 08:44:04;;;;;;;22.30;14.68;;;;;;;8.09;51.50;99888.88;5088021;28;20507;-66
2022/12/12 08:46:32;;;;;;;25.90;16.33;;;;;;;8.83;48.54;99887.69;5085798;28;20044;-66
2022/12/12 08:48:59;;;;;;;21.85;15.40;;;;;;;8.81;47.38;99895.53;5084432;28;20484;-65
2022/12/12 08:51:28;;;;;;;22.73;14.90;;;;;;;9.59;47.58;99889.50;5090043;28;20059;-65
2022/12/12 08:53:55;;;;;;;21.38;15.15;;;;;;;10.10;46.08;99881.59;5085013;28;20385;-67
2022/12/12 08:56:23;;;;;;;24.42;16.95;;;;;;;10.62;44.32;99889.19;5093269;28;20051;-67
2022/12/12 08:58:51;;;;;;;21.15;15.48;;;;;;;11.15;42.85;99893.53;5092257;28;20064;-67
2022/12/12 09:01:20;;;;;;;22.52;16.40;;;;;;;11.82;41.69;99891.06;5093651;28;20048;-67
2022/12/12 09:03:48;;;;;;;22.73;15.77;;;;;;;12.32;40.75;99887.47;5091993;28;20060;-67
2022/12/12 09:06:16;;;;;;;21.30;15.27;;;;;;;12.35;40.99;99895.19;5091172;28;20420;-67
2022/12/12 09:08:45;;;;;;;21.35;15.65;;;;;;;13.67;38.76;99887.91;5092073;28;20389;-66
2022/12/12 09:11:13;;;;;;;18.98;14.68;;;;;;;14.26;36.75;99886.56;5091671;28;20051;-66
2022/12/12 09:13:40;;;;;;;20.73;16.27;;;;;;;14.71;36.14;99898.72;5091095;28;20052;-66
2022/12/12 09:16:09;;;;;;;23.35;16.13;;;;;;;14.88;35.51;99906.00;5091865;28;20403;-67
2022/12/12 09:18:38;;;;;;;20.98;16.40;;;;;;;14.96;35.22;99903.03;5094052;28;20059;-66
2022/12/12 09:21:06;;;;;;;22.25;16.67;;;;;;;14.69;35.29;99901.06;5092110;28;20044;-67
2022/12/12 09:23:34;;;;;;;21.63;16.85;;;;;;;13.88;35.84;99910.19;5089675;28;20056;-66
2022/12/12 09:26:05;;;;;;;21.48;16.65;;;;;;;12.98;36.76;99904.31;5090607;28;20385;-65
2022/12/12 09:28:33;;;;;;;24.10;19.05;;;;;;;11.56;39.89;99917.13;5093067;28;20054;-67
2022/12/12 09:31:00;;;;;;;23.65;17.00;;;;;;;11.33;40.19;99916.56;5091597;28;20055;-65
2022/12/12 09:33:28;;;;;;;24.50;19.10;;;;;;;10.95;41.05;99912.56;5091936;28;20059;-67
2022/12/12 09:35:59;;;;;;;29.70;19.45;;;;;;;10.21;41.83;99923.88;5091712;28;20404;-67
2022/12/12 09:38:27;;;;;;;25.95;18.90;;;;;;;9.51;43.83;99926.44;5094228;28;20055;-67
2022/12/12 09:40:59;;;;;;;26.50;18.52;;;;;;;9.38;44.43;99924.59;5091212;28;20059;-67
2022/12/12 09:43:31;;;;;;;29.30;18.98;;;;;;;8.69;44.80;99928.59;5092167;28;20048;-66
2022/12/12 09:45:59;;;;;;;26.88;19.58;;;;;;;7.97;45.99;99940.47;5084589;28;20052;-66
2022/12/12 09:48:35;;;;;;;26.40;18.90;;;;;;;7.77;46.64;99930.63;5090906;28;20040;-67
2022/12/12 09:51:03;;;;;;;26.23;18.83;;;;;;;7.40;47.32;99926.94;5090735;28;20444;-66
2022/12/12 09:53:30;;;;;;;29.23;18.83;;;;;;;7.29;48.18;99932.69;5090830;28;20051;-67
2022/12/12 09:56:05;;;;;;;27.95;19.40;;;;;;;6.82;50.29;99934.59;5091111;28;20052;-67
2022/12/12 09:58:41;;;;;;;31.33;19.73;;;;;;;6.99;49.25;99927.69;5092387;28;20398;-67
2022/12/12 10:01:19;;;;;;;26.77;18.75;;;;;;;6.87;49.33;99929.00;5090452;28;20044;-67
2022/12/12 10:03:56;;;;;;;28.00;19.23;;;;;;;6.91;49.85;99927.28;5087552;28;20071;-65
2022/12/12 10:06:24;;;;;;;26.02;17.30;;;;;;;6.91;50.02;99926.47;5083987;28;20381;-66
2022/12/12 10:09:09;;;;;;;26.30;17.77;;;;;;;7.06;50.66;99928.13;5088971;28;20044;-67
2022/12/12 10:11:53;;;;;;;28.33;18.67;;;;;;;6.82;50.20;99923.53;5089834;28;20047;-66
2022/12/12 10:14:27;;;;;;;27.15;18.52;;;;;;;7.38;49.25;99918.94;5087609;28;20065;-66
2022/12/12 10:16:57;;;;;;;27.83;18.85;;;;;;;7.53;50.32;99915.03;5091088;28;20078;-67
2022/12/12 10:19:27;;;;;;;29.75;19.02;;;;;;;8.41;48.76;99911.22;5091487;28;20499;-66
2022/12/12 10:21:57;;;;;;;23.67;17.17;;;;;;;10.75;43.11;99913.25;5090510;28;20054;-66
2022/12/12 10:24:32;;;;;;;20.80;14.95;;;;;;;12.05;39.61;99906.38;5088071;28;20044;-67
2022/12/12 10:27:08;;;;;;;20.95;14.77;;;;;;;13.20;37.72;99903.06;5092327;28;20056;-66
2022/12/12 10:29:38;;;;;;;20.67;16.27;;;;;;;13.71;36.65;99899.19;5089544;28;20047;-66
2022/12/12 10:32:15;;;;;;;25.27;18.23;;;;;;;15.22;34.43;99899.75;5095959;28;20056;-65
2022/12/12 10:34:53;;;;;;;19.15;15.48;;;;;;;16.32;32.12;99890.78;5084531;28;20496;-66
2022/12/12 10:37:36;;;;;;;22.58;17.13;;;;;;;17.04;31.75;99884.66;5090000;28;20055;-66
2022/12/12 10:40:16;;;;;;;20.10;15.77;;;;;;;17.41;29.38;99890.56;5088266;28;20056;-66
2022/12/12 10:42:51;;;;;;;20.00;16.33;;;;;;;18.16;28.64;99885.34;5089688;28;20083;-64
2022/12/12 10:45:40;;;;;;;19.27;16.13;;;;;;;18.98;28.21;99891.31;5088872;28;20052;-65
2022/12/12 10:48:07;;;;;;;;;;;;;;;18.84;28.03;99885.50;5085995;28;20448;-66
2022/12/12 10:50:40;;;;;;;19.77;16.48;;;;;;;19.27;27.65;99877.47;5092431;28;19920;-64
2022/12/12 10:53:10;;;;;;;19.67;16.33;;;;;;;20.42;25.80;99881.22;5088926;28;20401;-66
2022/12/12 10:55:45;;;;;;;18.67;16.67;;;;;;;21.05;25.89;99874.19;5094586;28;20047;-66
2022/12/12 10:58:15;;;;;;;19.40;17.30;;;;;;;20.70;25.02;99882.56;5091020;28;20040;-67
2022/12/12 11:00:48;;;;;;;19.30;17.30;;;;;;;20.41;25.10;99882.41;5091836;28;20059;-66
2022/12/12 11:03:25;;;;;;;20.05;16.90;;;;;;;20.78;25.02;99872.91;5085882;28;20050;-64
2022/12/12 11:05:53;;;;;;;21.50;18.35;;;;;;;21.67;23.95;99872.28;5094099;28;20062;-66
2022/12/12 11:08:26;;;;;;;19.92;17.88;;;;;;;22.42;22.87;99865.72;5096711;28;20048;-65
2022/12/12 11:11:02;;;;;;;19.77;15.90;;;;;;;20.46;24.98;99870.72;5091277;28;20044;-66
2022/12/12 11:13:30;;;;;;;21.17;19.05;;;;;;;20.17;25.29;99878.22;5093859;28;20063;-66
2022/12/12 11:16:01;;;;;;;20.15;17.95;;;;;;;20.20;25.03;99869.78;5093556;28;20482;-66
2022/12/12 11:18:29;;;;;;;19.45;17.20;;;;;;;18.78;26.64;99868.06;5090605;28;20492;-66
2022/12/12 11:21:06;;;;;;;22.77;20.60;;;;;;;19.93;25.38;99871.19;5091184;28;20488;-66
2022/12/12 11:23:36;;;;;;;20.88;18.83;;;;;;;20.17;25.92;99862.06;5090697;28;20052;-65
2022/12/12 11:26:10;;;;;;;19.67;17.73;;;;;;;20.22;24.74;99866.53;5091958;28;20408;-66
2022/12/12 11:28:40;;;;;;;32.97;30.38;;;;;;;20.69;24.04;99867.63;5091695;28;20075;-66
2022/12/12 11:31:13;;;;;;;21.35;19.80;;;;;;;20.50;24.64;99865.88;5091856;28;20048;-65
2022/12/12 11:33:47;;;;;;;1999.90;999.90;;;;;;;20.82;24.20;99860.38;5091399;28;20063;-66
2022/12/12 11:36:16;;;;;;;1999.90;999.90;;;;;;;21.76;23.75;99864.19;5090457;28;20044;-65
2022/12/12 11:38:48;;;;;;;1999.90;999.90;;;;;;;22.40;22.60;99848.28;5087760;28;20074;-65
2022/12/12 11:41:16;;;;;;;1999.90;999.90;;;;;;;22.97;21.80;99850.84;5089531;28;20063;-65
2022/12/12 11:43:54;;;;;;;1999.90;999.90;;;;;;;23.38;20.98;99846.59;5088765;28;20051;-65
2022/12/12 11:46:27;;;;;;;1999.90;999.90;;;;;;;23.49;21.16;99845.25;5091325;28;20048;-66
2022/12/12 11:49:00;;;;;;;45.92;43.03;;;;;;;23.48;21.03;99843.66;5093556;28;20059;-66
2022/12/12 11:51:33;;;;;;;29.73;27.52;;;;;;;23.76;20.95;99836.13;5084578;28;20075;-66
2022/12/12 11:54:02;;;;;;;22.92;21.00;;;;;;;23.43;21.65;99832.72;5088064;28;20059;-65